Time;durP1;ratioP1;P1;durP2;ratioP2;P2;SDS_P1;SDS_P2;PMS_P1;PMS_P2;Temp;Humidity;BMP_temperature;BMP_pressure;BME280_temperature;BME280_humidity;BME280_pressure;Samples;Min_cycle;Max_cycle;Signal;HPM_P1;HPM_P2
2023/06/23 00:02:00;;;;;;;3.97;1.90;;;;;;;21.03;100.00;96444.69;4954377;28;103710;-61
2023/06/23 00:04:27;;;;;;;3.20;1.87;;;;;;;20.86;100.00;96453.50;4974590;28;103094;-61
2023/06/23 00:06:54;;;;;;;4.27;1.70;;;;;;;20.66;100.00;96477.59;4954239;28;105577;-61
2023/06/23 00:09:22;;;;;;;3.93;2.10;;;;;;;20.37;100.00;96482.69;4971284;28;102629;-61
2023/06/23 00:11:49;;;;;;;3.23;2.20;;;;;;;20.16;100.00;96487.03;4954206;28;101987;-61
2023/06/23 00:14:17;;;;;;;5.43;2.67;;;;;;;20.07;100.00;96486.16;4954133;28;105357;-61
2023/06/23 00:16:44;;;;;;;5.40;2.43;;;;;;;19.95;100.00;96481.28;4971325;28;102703;-61
2023/06/23 00:19:12;;;;;;;5.93;2.30;;;;;;;19.73;100.00;96478.56;4971517;28;101909;-61
2023/06/23 00:21:39;;;;;;;5.10;2.40;;;;;;;19.58;100.00;96476.25;4971678;28;102803;-61
2023/06/23 00:24:06;;;;;;;6.90;2.50;;;;;;;19.41;100.00;96483.38;4970990;28;102748;-60
2023/06/23 00:26:34;;;;;;;5.83;2.63;;;;;;;19.32;100.00;96487.88;4974818;28;103529;-61
2023/06/23 00:29:05;;;;;;;4.23;2.17;;;;;;;19.27;100.00;96477.19;4953207;28;105984;-61
2023/06/23 00:31:33;;;;;;;3.47;2.60;;;;;;;19.30;100.00;96474.69;4953794;28;101803;-61
2023/06/23 00:34:00;;;;;;;4.37;2.17;;;;;;;19.37;100.00;96466.19;4953635;28;105163;-61
2023/06/23 00:36:30;;;;;;;5.73;2.30;;;;;;;19.30;100.00;96465.81;4953175;28;105353;-61
2023/06/23 00:39:01;;;;;;;4.33;2.30;;;;;;;19.28;100.00;96473.41;4953863;28;102390;-60
2023/06/23 00:41:28;;;;;;;5.13;2.30;;;;;;;19.28;100.00;96468.00;4970200;28;102343;-61
2023/06/23 00:43:59;;;;;;;3.27;2.37;;;;;;;19.22;100.00;96461.13;4953009;28;105943;-60
2023/06/23 00:46:27;;;;;;;3.93;2.40;;;;;;;19.14;100.00;96470.69;4969155;28;102171;-61
2023/06/23 00:48:56;;;;;;;4.73;2.40;;;;;;;19.21;100.00;96473.84;4956328;28;103945;-61
2023/06/23 00:51:23;;;;;;;4.43;2.70;;;;;;;19.31;100.00;96475.50;4953466;28;102169;-61
2023/06/23 00:53:53;;;;;;;5.90;2.40;;;;;;;19.26;100.00;96478.31;4953481;28;105841;-61
2023/06/23 00:56:21;;;;;;;4.03;2.47;;;;;;;19.17;100.00;96488.16;4970292;28;103234;-61
2023/06/23 00:58:48;;;;;;;5.57;2.53;;;;;;;19.21;100.00;96489.16;4953547;28;102160;-60
2023/06/23 01:01:15;;;;;;;6.63;3.43;;;;;;;19.25;100.00;96493.72;4953262;28;105379;-60
2023/06/23 01:03:44;;;;;;;5.57;2.70;;;;;;;19.26;100.00;96486.41;4970176;28;103044;-60
2023/06/23 01:06:17;;;;;;;6.53;2.40;;;;;;;19.32;100.00;96501.38;4953281;28;101974;-61
2023/06/23 01:08:54;;;;;;;3.70;2.23;;;;;;;19.36;100.00;96505.06;4971013;28;102415;-60
2023/06/23 01:11:29;;;;;;;5.53;2.60;;;;;;;19.29;100.00;96510.06;4973838;28;102579;-61
2023/06/23 01:14:00;;;;;;;2.60;2.20;;;;;;;19.35;100.00;96508.88;4953243;28;104011;-61
2023/06/23 01:16:32;;;;;;;4.27;2.07;;;;;;;19.35;100.00;96520.44;4952461;28;106650;-61
2023/06/23 01:19:12;;;;;;;3.43;2.10;;;;;;;19.35;100.00;96516.97;4953052;28;101852;-60
2023/06/23 01:21:53;;;;;;;3.67;1.97;;;;;;;19.31;100.00;96505.16;4953086;28;104991;-61
2023/06/23 01:24:36;;;;;;;4.40;2.27;;;;;;;19.24;100.00;96504.78;4952490;28;105935;-61
2023/06/23 01:27:29;;;;;;;4.10;2.40;;;;;;;19.13;100.00;96490.69;4952862;28;101845;-61
2023/06/23 01:30:04;;;;;;;6.27;2.53;;;;;;;18.82;100.00;96488.91;4953151;28;105032;-61
2023/06/23 01:32:38;;;;;;;3.70;2.00;;;;;;;18.65;100.00;96496.78;4952306;28;105544;-60
2023/06/23 01:35:08;;;;;;;2.03;1.70;;;;;;;18.62;100.00;96508.94;4956360;28;102167;-60
2023/06/23 01:37:38;;;;;;;2.50;1.77;;;;;;;18.55;100.00;96505.06;4952505;28;105367;-60
2023/06/23 01:40:10;;;;;;;3.77;2.47;;;;;;;18.51;100.00;96494.06;4970207;28;101835;-61
2023/06/23 01:42:42;;;;;;;5.57;2.20;;;;;;;18.49;100.00;96498.97;4952816;28;103927;-60
2023/06/23 01:45:14;;;;;;;2.37;1.93;;;;;;;18.35;100.00;96497.31;4952127;28;105374;-60
2023/06/23 01:47:48;;;;;;;2.50;1.90;;;;;;;18.38;100.00;96499.44;4970001;28;102062;-60
2023/06/23 01:50:16;;;;;;;3.60;2.33;;;;;;;18.43;100.00;96499.34;4952673;28;105374;-60
2023/06/23 01:52:45;;;;;;;3.27;2.10;;;;;;;18.48;100.00;96505.44;4969544;28;103026;-60
2023/06/23 01:55:13;;;;;;;3.03;2.10;;;;;;;18.55;100.00;96494.28;4955845;28;101960;-60
2023/06/23 01:57:43;;;;;;;2.20;1.73;;;;;;;18.57;100.00;96492.06;4952016;28;104816;-60
2023/06/23 02:00:17;;;;;;;2.80;1.80;;;;;;;18.51;100.00;96494.06;4952392;28;101953;-60
2023/06/23 02:02:46;;;;;;;2.30;2.10;;;;;;;18.58;100.00;96497.16;4967145;28;102500;-60
2023/06/23 02:05:15;;;;;;;2.40;1.87;;;;;;;18.57;100.00;96490.19;4951927;28;105392;-60
2023/06/23 02:07:46;;;;;;;3.90;2.07;;;;;;;18.65;100.00;96494.09;4970048;28;102065;-60
2023/06/23 02:10:14;;;;;;;2.07;1.70;;;;;;;18.68;100.00;96494.28;4970241;28;102535;-60
2023/06/23 02:12:44;;;;;;;2.10;1.90;;;;;;;18.74;100.00;96500.41;4951673;28;105910;-60
2023/06/23 02:15:14;;;;;;;3.60;2.10;;;;;;;18.75;100.00;96502.75;4952290;28;102098;-60
2023/06/23 02:17:43;;;;;;;2.73;2.23;;;;;;;18.78;100.00;96498.69;4955034;28;105768;-61
2023/06/23 02:20:15;;;;;;;2.43;2.00;;;;;;;18.71;100.00;96509.06;4952325;28;101926;-61
2023/06/23 02:22:46;;;;;;;2.87;2.30;;;;;;;18.65;100.00;96516.44;4952188;28;105854;-60
2023/06/23 02:25:15;;;;;;;3.30;2.20;;;;;;;18.66;100.00;96511.84;4969459;28;102116;-60
2023/06/23 02:27:43;;;;;;;2.27;2.07;;;;;;;18.70;100.00;96499.38;4952051;28;101870;-60
2023/06/23 02:30:13;;;;;;;2.53;2.00;;;;;;;18.74;100.00;96498.47;4952188;28;104921;-60
2023/06/23 02:32:40;;;;;;;2.50;2.30;;;;;;;18.72;100.00;96497.19;4951541;28;106200;-60
2023/06/23 02:35:09;;;;;;;2.47;2.10;;;;;;;18.68;100.00;96498.88;4952059;28;101948;-60
2023/06/23 02:37:39;;;;;;;2.70;1.80;;;;;;;18.73;100.00;96493.38;4951976;28;105612;-60
2023/06/23 02:40:10;;;;;;;2.27;2.03;;;;;;;18.75;100.00;96496.59;4972502;28;102647;-61
2023/06/23 02:42:41;;;;;;;3.27;2.10;;;;;;;18.76;100.00;96495.50;4951937;28;105723;-61
2023/06/23 02:45:16;;;;;;;4.30;2.53;;;;;;;18.77;100.00;96480.91;4951328;28;104864;-60
2023/06/23 02:47:45;;;;;;;3.30;2.20;;;;;;;18.78;100.00;96479.81;4964674;28;102115;-60
2023/06/23 02:50:14;;;;;;;3.33;2.30;;;;;;;18.77;100.00;96472.84;4948598;28;105333;-60
2023/06/23 02:52:46;;;;;;;3.03;2.30;;;;;;;18.70;100.00;96485.91;4948103;28;105415;-60
2023/06/23 02:55:18;;;;;;;2.37;2.17;;;;;;;18.70;100.00;96491.31;4948597;28;102184;-60
2023/06/23 02:57:47;;;;;;;3.50;2.40;;;;;;;18.68;100.00;96490.78;4948608;28;105304;-60
2023/06/23 03:00:22;;;;;;;3.90;2.13;;;;;;;18.61;100.00;96490.38;4949270;28;103889;-61
2023/06/23 03:02:54;;;;;;;2.53;2.07;;;;;;;18.58;100.00;96494.47;4953611;28;102135;-60
2023/06/23 03:05:22;;;;;;;3.30;2.17;;;;;;;18.61;100.00;96496.59;4950382;28;105783;-61
2023/06/23 03:07:51;;;;;;;3.00;2.13;;;;;;;18.63;100.00;96491.69;4951668;28;102010;-60
2023/06/23 03:10:18;;;;;;;2.20;2.00;;;;;;;18.60;100.00;96486.09;4951884;28;105664;-60
2023/06/23 03:12:47;;;;;;;2.10;1.97;;;;;;;18.62;100.00;96483.91;4951285;28;106177;-60
2023/06/23 03:15:17;;;;;;;3.90;2.50;;;;;;;18.53;100.00;96469.56;4951700;28;102056;-60
2023/06/23 03:17:47;;;;;;;2.53;1.90;;;;;;;18.62;100.00;96473.13;4951765;28;105229;-60
2023/06/23 03:20:22;;;;;;;2.30;2.10;;;;;;;18.60;100.00;96469.94;4952289;28;102706;-60
2023/06/23 03:22:55;;;;;;;2.17;1.97;;;;;;;18.51;100.00;96471.72;4951706;28;101893;-60
2023/06/23 03:25:25;;;;;;;3.40;2.23;;;;;;;18.48;100.00;96485.81;4954524;28;105413;-60
2023/06/23 03:27:55;;;;;;;3.47;2.40;;;;;;;18.51;100.00;96496.78;4951573;28;101903;-60
2023/06/23 03:30:26;;;;;;;3.13;2.07;;;;;;;18.56;100.00;96493.19;4951666;28;105054;-61
2023/06/23 03:32:58;;;;;;;2.93;2.43;;;;;;;18.53;100.00;96502.66;4951064;28;105822;-60
2023/06/23 03:35:29;;;;;;;6.37;2.20;;;;;;;18.32;100.00;96504.09;4951457;28;101831;-60
2023/06/23 03:37:59;;;;;;;2.77;2.10;;;;;;;18.32;100.00;96522.16;4951241;28;105428;-60
2023/06/23 03:40:30;;;;;;;2.53;2.03;;;;;;;18.38;100.00;96523.69;4952343;28;103112;-60
2023/06/23 03:43:03;;;;;;;2.80;2.27;;;;;;;18.36;100.00;96536.66;4952980;28;101895;-60
2023/06/23 03:45:34;;;;;;;2.30;2.00;;;;;;;18.30;100.00;96535.06;4951277;28;105004;-61
2023/06/23 03:48:03;;;;;;;2.70;2.10;;;;;;;18.33;100.00;96538.03;4972499;28;102619;-60
2023/06/23 03:50:35;;;;;;;2.23;2.00;;;;;;;18.40;100.00;96545.72;4972126;28;102452;-60
2023/06/23 03:53:05;;;;;;;2.80;2.27;;;;;;;18.47;100.00;96551.53;4971623;28;102569;-60
2023/06/23 03:55:33;;;;;;;2.73;2.10;;;;;;;18.53;100.00;96547.66;4971801;28;101885;-60
2023/06/23 03:58:05;;;;;;;2.30;2.10;;;;;;;18.60;100.00;96553.44;4954319;28;105774;-61
2023/06/23 04:00:36;;;;;;;2.00;1.90;;;;;;;18.65;100.00;96564.91;4971514;28;102652;-60
2023/06/23 04:03:07;;;;;;;2.13;1.97;;;;;;;18.64;100.00;96557.16;4972214;28;101810;-61
2023/06/23 04:05:36;;;;;;;2.40;2.20;;;;;;;18.66;100.00;96561.16;4954092;28;106164;-60
2023/06/23 04:08:06;;;;;;;2.30;2.10;;;;;;;18.57;100.00;96568.31;4974449;28;102533;-60
2023/06/23 04:10:33;;;;;;;2.17;1.97;;;;;;;18.52;100.00;96557.63;4953831;28;105555;-60
2023/06/23 04:13:02;;;;;;;2.63;2.20;;;;;;;18.44;100.00;96557.50;4953440;28;105832;-60
2023/06/23 04:15:30;;;;;;;2.70;2.20;;;;;;;18.44;100.00;96544.84;4970658;28;101849;-60
2023/06/23 04:18:01;;;;;;;3.70;1.80;;;;;;;18.29;100.00;96557.72;4971804;28;102336;-61
2023/06/23 04:20:30;;;;;;;2.83;1.90;;;;;;;18.28;100.00;96570.41;4971002;28;102073;-60
2023/06/23 04:22:59;;;;;;;2.43;1.97;;;;;;;18.22;100.00;96576.16;4953960;28;101929;-61
2023/06/23 04:25:27;;;;;;;2.73;2.00;;;;;;;18.13;100.00;96577.91;4954069;28;105807;-61
2023/06/23 04:27:59;;;;;;;3.87;2.13;;;;;;;17.94;100.00;96582.50;4970827;28;102460;-60
2023/06/23 04:30:29;;;;;;;3.00;2.17;;;;;;;17.89;100.00;96604.09;4975078;28;102053;-61
2023/06/23 04:32:56;;;;;;;2.53;1.93;;;;;;;17.84;100.00;96609.56;4953179;28;104333;-60
2023/06/23 04:35:24;;;;;;;2.60;1.93;;;;;;;17.75;100.00;96608.59;4971463;28;101858;-60
2023/06/23 04:37:58;;;;;;;2.10;2.00;;;;;;;17.78;100.00;96599.94;4971254;28;102483;-60
2023/06/23 04:40:33;;;;;;;2.60;2.23;;;;;;;17.77;100.00;96593.75;4970777;28;102604;-60
2023/06/23 04:43:09;;;;;;;2.17;1.90;;;;;;;17.78;100.00;96587.31;4953699;28;101939;-61
2023/06/23 04:45:38;;;;;;;2.03;1.83;;;;;;;17.87;100.00;96584.78;4953592;28;106014;-60
2023/06/23 04:48:09;;;;;;;3.10;2.10;;;;;;;17.74;100.00;96591.66;4970169;28;102608;-60
2023/06/23 04:50:40;;;;;;;2.93;2.23;;;;;;;17.95;100.00;96586.78;4953567;28;102141;-62
2023/06/23 04:53:14;;;;;;;3.97;2.80;;;;;;;18.11;100.00;96593.53;4956229;28;105113;-61
2023/06/23 04:55:45;;;;;;;4.83;2.70;;;;;;;18.92;100.00;96602.69;4953413;28;101782;-61
2023/06/23 04:58:13;;;;;;;2.53;2.17;;;;;;;18.60;100.00;96599.25;4953427;28;105738;-62
2023/06/23 05:00:41;;;;;;;2.73;2.40;;;;;;;18.57;100.00;96586.34;4968877;28;105868;-61
2023/06/23 05:03:08;;;;;;;5.07;2.70;;;;;;;18.64;100.00;96584.09;4953462;28;101953;-62
2023/06/23 05:05:38;;;;;;;2.50;2.30;;;;;;;18.44;100.00;96579.03;4953237;28;103746;-61
2023/06/23 05:08:06;;;;;;;4.13;2.50;;;;;;;18.63;100.00;96582.50;4952290;28;104065;-61
2023/06/23 05:10:34;;;;;;;5.90;2.60;;;;;;;18.82;100.00;96581.34;4953120;28;101933;-61
2023/06/23 05:13:04;;;;;;;3.40;2.43;;;;;;;19.21;100.00;96553.88;4953517;28;105167;-61
2023/06/23 05:15:31;;;;;;;4.10;2.40;;;;;;;19.47;100.00;96557.69;4955968;28;105059;-61
2023/06/23 05:18:01;;;;;;;4.23;2.67;;;;;;;19.51;100.00;96550.59;4953039;28;105233;-61
2023/06/23 05:20:30;;;;;;;3.30;2.50;;;;;;;19.41;100.00;96564.28;4952468;28;105398;-61
2023/06/23 05:23:02;;;;;;;3.47;2.40;;;;;;;19.12;100.00;96563.78;4952891;28;101940;-61
2023/06/23 05:25:32;;;;;;;4.53;2.40;;;;;;;18.84;100.00;96560.28;4953146;28;104873;-61
2023/06/23 05:28:01;;;;;;;2.60;2.40;;;;;;;18.89;100.00;96575.53;4951750;28;104843;-61
2023/06/23 05:30:30;;;;;;;4.83;2.60;;;;;;;18.78;100.00;96580.31;4952808;28;101913;-61
2023/06/23 05:32:59;;;;;;;2.73;2.43;;;;;;;18.25;100.00;96589.03;4952812;28;105120;-61
2023/06/23 05:35:28;;;;;;;2.67;2.33;;;;;;;18.42;100.00;96589.31;4952243;28;104232;-61
2023/06/23 05:37:58;;;;;;;3.87;2.30;;;;;;;18.43;100.00;96593.59;4973584;28;102829;-61
2023/06/23 05:40:25;;;;;;;3.10;2.80;;;;;;;18.29;100.00;96592.72;4952115;28;105093;-61
2023/06/23 05:42:52;;;;;;;5.33;2.30;;;;;;;18.16;100.00;96594.25;4952665;28;101956;-61
2023/06/23 05:45:20;;;;;;;3.23;2.70;;;;;;;18.40;100.00;96597.69;4952662;28;105585;-61
2023/06/23 05:47:58;;;;;;;4.00;2.27;;;;;;;18.63;100.00;96610.22;4951481;28;105329;-61
2023/06/23 05:50:28;;;;;;;3.07;2.43;;;;;;;18.41;100.00;96607.34;4952915;28;101968;-61
2023/06/23 05:53:02;;;;;;;5.17;2.40;;;;;;;18.58;100.00;96602.22;4970338;28;102390;-61
2023/06/23 05:55:30;;;;;;;3.47;2.13;;;;;;;18.43;100.00;96609.75;4952063;28;105357;-61
2023/06/23 05:58:02;;;;;;;2.43;2.10;;;;;;;18.30;100.00;96619.34;4952562;28;102062;-61
2023/06/23 06:00:34;;;;;;;4.73;2.40;;;;;;;18.16;100.00;96628.47;4955306;28;105477;-61
2023/06/23 06:03:04;;;;;;;3.23;2.27;;;;;;;17.93;100.00;96632.03;4952387;28;101826;-61
2023/06/23 06:05:34;;;;;;;2.50;2.00;;;;;;;18.17;100.00;96649.72;4952457;28;105020;-61
2023/06/23 06:08:05;;;;;;;2.80;2.13;;;;;;;18.12;100.00;96648.97;4951721;28;104742;-61
2023/06/23 06:10:32;;;;;;;3.17;2.20;;;;;;;18.13;100.00;96651.38;4952430;28;101898;-61
2023/06/23 06:13:01;;;;;;;7.47;2.50;;;;;;;18.36;100.00;96663.97;4968690;28;105426;-61
2023/06/23 06:15:30;;;;;;;5.90;2.60;;;;;;;18.35;100.00;96666.97;4951803;28;103832;-61
2023/06/23 06:18:00;;;;;;;5.17;2.50;;;;;;;18.82;100.00;96664.06;4952121;28;101999;-61
2023/06/23 06:20:28;;;;;;;3.20;2.10;;;;;;;18.47;100.00;96661.94;4954983;28;105395;-61
2023/06/23 06:22:57;;;;;;;3.90;2.10;;;;;;;18.81;100.00;96679.41;4968535;28;101916;-61
2023/06/23 06:25:27;;;;;;;5.67;2.33;;;;;;;18.77;100.00;96680.31;4952077;28;105416;-61
2023/06/23 06:27:56;;;;;;;4.57;2.30;;;;;;;19.12;100.00;96695.88;4967714;28;105248;-61
2023/06/23 06:30:24;;;;;;;6.17;2.30;;;;;;;19.00;100.00;96701.75;4952123;28;102104;-61
2023/06/23 06:32:53;;;;;;;2.20;1.87;;;;;;;18.70;100.00;96696.06;4969845;28;102518;-61
2023/06/23 06:35:22;;;;;;;4.33;2.10;;;;;;;18.43;100.00;96710.19;4951299;28;105289;-61
2023/06/23 06:37:52;;;;;;;2.90;1.93;;;;;;;18.40;100.00;96709.97;4968037;28;101944;-61
2023/06/23 06:40:23;;;;;;;2.40;1.60;;;;;;;18.33;100.00;96733.78;4954546;28;105175;-61
2023/06/23 06:42:52;;;;;;;2.77;2.33;;;;;;;18.24;100.00;96740.88;4958202;28;105470;-61
2023/06/23 06:45:19;;;;;;;5.27;2.83;;;;;;;18.14;100.00;96754.47;4973214;28;102338;-61
2023/06/23 06:47:49;;;;;;;3.50;2.63;;;;;;;17.99;100.00;96765.44;4954569;28;105568;-61
2023/06/23 06:50:18;;;;;;;4.00;3.40;;;;;;;17.87;100.00;96768.50;4955237;28;101842;-61
2023/06/23 06:52:47;;;;;;;2.23;1.90;;;;;;;17.83;100.00;96775.56;4955673;28;103100;-61
2023/06/23 06:55:17;;;;;;;2.30;1.73;;;;;;;17.84;100.00;96774.47;4972678;28;102810;-61
2023/06/23 06:57:46;;;;;;;2.27;2.00;;;;;;;17.79;100.00;96769.16;4955241;28;101930;-61
2023/06/23 07:00:18;;;;;;;2.73;2.07;;;;;;;17.62;100.00;96768.81;4972908;28;102492;-61
2023/06/23 07:02:45;;;;;;;1.93;1.57;;;;;;;17.60;100.00;96778.25;4972581;28;102907;-61
2023/06/23 07:05:13;;;;;;;1.57;1.47;;;;;;;17.53;100.00;96783.16;4976222;28;102237;-61
2023/06/23 07:07:40;;;;;;;2.00;1.80;;;;;;;17.48;100.00;96786.69;4972145;28;102718;-61
2023/06/23 07:10:08;;;;;;;3.07;2.67;;;;;;;17.55;100.00;96794.44;4972879;28;102052;-61
2023/06/23 07:12:35;;;;;;;4.57;3.03;;;;;;;17.54;100.00;96796.31;4955048;28;105436;-61
2023/06/23 07:15:02;;;;;;;2.73;2.03;;;;;;;17.87;100.00;96806.19;4954376;28;105559;-61
2023/06/23 07:17:30;;;;;;;3.07;2.47;;;;;;;17.86;100.00;96801.91;4972760;28;101833;-61
2023/06/23 07:19:57;;;;;;;2.10;1.90;;;;;;;17.88;100.00;96798.94;4972608;28;102552;-61
2023/06/23 07:22:24;;;;;;;3.73;2.00;;;;;;;17.91;100.00;96801.84;4954190;28;106124;-61
2023/06/23 07:24:51;;;;;;;1.93;1.73;;;;;;;17.93;100.00;96804.25;4972540;28;101813;-61
2023/06/23 07:27:18;;;;;;;2.10;1.90;;;;;;;18.07;100.00;96805.16;4975299;28;102454;-61
2023/06/23 07:29:45;;;;;;;2.23;1.63;;;;;;;18.35;100.00;96817.75;4938353;28;102149;-61
2023/06/23 07:32:14;;;;;;;1.70;1.60;;;;;;;18.08;100.00;96818.31;4972542;28;102868;-61
2023/06/23 07:34:43;;;;;;;1.60;1.50;;;;;;;18.19;100.00;96821.69;4970470;28;105569;-61
2023/06/23 07:37:10;;;;;;;1.80;1.70;;;;;;;18.07;100.00;96827.50;4954482;28;101933;-61
2023/06/23 07:39:37;;;;;;;2.13;1.60;;;;;;;18.11;100.00;96830.41;4954707;28;105553;-61
2023/06/23 07:42:04;;;;;;;1.97;1.87;;;;;;;18.21;100.00;96835.69;4954146;28;103760;-61
2023/06/23 07:44:32;;;;;;;2.10;2.00;;;;;;;18.42;100.00;96842.47;4954436;28;102092;-61
2023/06/23 07:46:59;;;;;;;2.20;2.00;;;;;;;18.27;100.00;96842.59;4954226;28;105459;-61
2023/06/23 07:49:26;;;;;;;2.87;2.30;;;;;;;17.96;100.00;96849.41;4957051;28;104376;-61
2023/06/23 07:51:59;;;;;;;2.57;2.37;;;;;;;18.07;100.00;96858.97;4954292;28;105341;-61
2023/06/23 07:54:26;;;;;;;3.77;3.07;;;;;;;18.13;100.00;96865.91;4953951;28;103163;-61
2023/06/23 07:56:53;;;;;;;4.63;4.23;;;;;;;18.14;100.00;96864.84;4954300;28;101937;-61
2023/06/23 07:59:20;;;;;;;5.07;4.67;;;;;;;17.96;100.00;96857.50;4954248;28;105360;-61
2023/06/23 08:01:47;;;;;;;5.53;5.03;;;;;;;18.18;100.00;96860.47;4953612;28;105438;-61
2023/06/23 08:04:14;;;;;;;5.57;4.20;;;;;;;18.01;100.00;96874.41;4954193;28;101849;-61
2023/06/23 08:06:41;;;;;;;5.23;4.63;;;;;;;18.28;100.00;96873.81;4954215;28;105656;-61
2023/06/23 08:09:09;;;;;;;5.10;4.60;;;;;;;18.05;100.00;96878.09;4953363;28;105096;-61
2023/06/23 08:11:36;;;;;;;4.33;3.93;;;;;;;18.22;100.00;96878.47;4957653;28;102094;-61
2023/06/23 08:14:03;;;;;;;3.90;3.50;;;;;;;18.47;100.00;96880.09;4953475;28;105579;-61
2023/06/23 08:16:30;;;;;;;4.07;3.57;;;;;;;18.53;100.00;96877.03;4971675;28;101859;-61
2023/06/23 08:18:56;;;;;;;4.33;3.80;;;;;;;18.67;100.00;96869.06;4970281;28;104902;-61
2023/06/23 08:21:23;;;;;;;5.47;3.97;;;;;;;18.59;100.00;96877.78;4953293;28;105328;-61
2023/06/23 08:23:50;;;;;;;4.90;4.30;;;;;;;18.41;100.00;96878.53;4954109;28;102370;-61
2023/06/23 08:26:19;;;;;;;4.17;3.87;;;;;;;18.37;100.00;96882.91;4953840;28;105716;-61
2023/06/23 08:28:46;;;;;;;4.83;3.97;;;;;;;18.44;100.00;96886.88;4952971;28;105030;-61
2023/06/23 08:31:13;;;;;;;6.73;4.10;;;;;;;18.16;100.00;96894.97;4957235;28;102010;-61
2023/06/23 08:33:40;;;;;;;4.97;4.20;;;;;;;18.32;100.00;96899.91;4953146;28;105943;-61
2023/06/23 08:36:07;;;;;;;7.27;4.57;;;;;;;18.81;100.00;96895.00;4953688;28;101944;-60
2023/06/23 08:38:34;;;;;;;5.10;4.70;;;;;;;18.53;100.00;96895.09;4969263;28;104841;-61
2023/06/23 08:41:02;;;;;;;5.00;4.20;;;;;;;18.42;100.00;96889.03;4952681;28;105591;-60
2023/06/23 08:43:34;;;;;;;6.20;5.53;;;;;;;18.40;100.00;96895.78;4953475;28;102032;-60
2023/06/23 08:46:03;;;;;;;5.63;5.20;;;;;;;18.43;100.00;96897.91;4951660;28;105537;-60
2023/06/23 08:48:31;;;;;;;5.87;5.37;;;;;;;18.58;100.00;96895.06;4952567;28;104015;-60
2023/06/23 08:51:01;;;;;;;5.97;5.37;;;;;;;18.67;100.00;96898.69;4953046;28;102220;-60
2023/06/23 08:53:28;;;;;;;6.63;6.03;;;;;;;18.72;100.00;96898.63;4955847;28;105479;-62
2023/06/23 08:55:56;;;;;;;6.70;6.10;;;;;;;18.76;100.00;96896.97;4953200;28;101958;-62
2023/06/23 08:58:24;;;;;;;6.57;5.80;;;;;;;18.71;100.00;96895.16;4970944;28;102756;-62
2023/06/23 09:00:54;;;;;;;6.10;5.60;;;;;;;18.71;100.00;96897.03;4952357;28;105837;-62
2023/06/23 09:03:22;;;;;;;6.73;6.00;;;;;;;18.95;100.00;96897.78;4952451;28;101919;-62
2023/06/23 09:05:49;;;;;;;6.10;5.50;;;;;;;19.00;100.00;96884.22;4953206;28;104001;-63
2023/06/23 09:08:16;;;;;;;6.83;6.13;;;;;;;19.07;100.00;96876.59;4952463;28;105378;-63
2023/06/23 09:10:43;;;;;;;6.70;5.97;;;;;;;19.10;100.00;96884.91;4953186;28;102153;-63
2023/06/23 09:13:18;;;;;;;7.30;6.60;;;;;;;19.08;100.00;96880.88;4953019;28;105212;-63
2023/06/23 09:15:47;;;;;;;7.07;6.13;;;;;;;19.14;100.00;96877.03;4955776;28;105101;-63
2023/06/23 09:18:17;;;;;;;6.37;5.70;;;;;;;19.46;100.00;96871.69;4970807;28;102422;-63
2023/06/23 09:20:45;;;;;;;7.50;6.80;;;;;;;19.44;100.00;96863.91;4952000;28;106136;-64
2023/06/23 09:23:16;;;;;;;8.03;6.80;;;;;;;19.31;100.00;96858.44;4953042;28;102379;-63
2023/06/23 09:25:44;;;;;;;9.83;6.73;;;;;;;19.30;100.00;96837.97;4969205;28;105096;-63
2023/06/23 09:28:22;;;;;;;8.50;7.60;;;;;;;19.49;100.00;96860.31;4952240;28;105477;-63
2023/06/23 09:30:49;;;;;;;6.60;6.00;;;;;;;19.65;100.00;96856.25;4952823;28;102065;-63
2023/06/23 09:33:20;;;;;;;8.13;7.33;;;;;;;19.91;100.00;96857.41;4952786;28;105952;-63
2023/06/23 09:35:50;;;;;;;8.13;6.73;;;;;;;20.29;100.00;96858.88;4952189;28;105083;-63
2023/06/23 09:38:19;;;;;;;8.13;6.90;;;;;;;19.96;100.00;96847.34;4955996;28;102134;-63
2023/06/23 09:40:46;;;;;;;8.43;7.23;;;;;;;19.90;100.00;96858.53;4951866;28;105378;-64
2023/06/23 09:43:15;;;;;;;7.73;6.27;;;;;;;20.25;100.00;96847.88;4952539;28;101980;-63
2023/06/23 09:45:43;;;;;;;7.00;6.27;;;;;;;20.11;100.00;96846.28;4952984;28;104138;-63
2023/06/23 09:48:24;;;;;;;9.20;6.90;;;;;;;20.14;100.00;96859.97;4951679;28;105423;-63
2023/06/23 09:51:01;;;;;;;7.47;6.77;;;;;;;20.48;100.00;96851.50;4952813;28;102174;-63
2023/06/23 09:53:32;;;;;;;8.53;7.67;;;;;;;20.82;100.00;96851.84;4952435;28;105000;-63
2023/06/23 09:55:59;;;;;;;7.77;6.57;;;;;;;20.78;100.00;96846.22;4951945;28;105031;-63
2023/06/23 09:58:29;;;;;;;8.10;7.40;;;;;;;20.85;100.00;96857.44;4952287;28;101960;-63
2023/06/23 10:01:01;;;;;;;8.97;7.40;;;;;;;21.16;100.00;96857.56;4955184;28;105392;-63
2023/06/23 10:03:30;;;;;;;8.23;7.40;;;;;;;21.00;100.00;96859.84;4952455;28;102130;-63
2023/06/23 10:05:57;;;;;;;8.20;7.40;;;;;;;21.16;100.00;96860.28;4952326;28;105024;-63
2023/06/23 10:08:25;;;;;;;8.27;7.13;;;;;;;21.42;100.00;96845.06;4951589;28;105851;-63
2023/06/23 10:10:51;;;;;;;9.07;8.17;;;;;;;21.31;100.00;96847.19;4952344;28;102015;-63
2023/06/23 10:13:18;;;;;;;8.37;7.57;;;;;;;21.02;100.00;96852.19;4952161;28;105427;-63
2023/06/23 10:15:46;;;;;;;8.37;7.57;;;;;;;21.13;100.00;96852.75;4951488;28;105843;-63
2023/06/23 10:18:14;;;;;;;7.83;7.13;;;;;;;21.18;100.00;96855.34;4952204;28;101849;-63
2023/06/23 10:20:42;;;;;;;8.67;7.10;;;;;;;21.91;100.00;96853.81;4952240;28;105705;-63
2023/06/23 10:23:09;;;;;;;7.90;7.20;;;;;;;22.15;100.00;96845.31;4954811;28;101957;-63
2023/06/23 10:25:37;;;;;;;7.77;6.97;;;;;;;21.90;100.00;96848.72;4952222;28;104080;-63
2023/06/23 10:28:10;;;;;;;8.60;6.90;;;;;;;21.60;100.00;96846.75;4951482;28;105160;-63
2023/06/23 10:30:41;;;;;;;8.73;7.60;;;;;;;21.65;100.00;96849.34;4968310;28;101915;-63
2023/06/23 10:33:15;;;;;;;7.33;6.63;;;;;;;21.85;100.00;96838.03;4952169;28;105597;-63
2023/06/23 10:35:45;;;;;;;8.00;7.20;;;;;;;21.72;100.00;96834.28;4951549;28;105807;-64
2023/06/23 10:38:15;;;;;;;8.90;7.77;;;;;;;21.49;100.00;96829.97;4951762;28;101920;-64
2023/06/23 10:40:49;;;;;;;9.23;7.73;;;;;;;21.48;100.00;96838.41;4951458;28;105153;-63
2023/06/23 10:43:18;;;;;;;7.80;7.10;;;;;;;21.71;100.00;96829.19;4954616;28;105469;-64
2023/06/23 10:45:46;;;;;;;7.47;6.77;;;;;;;21.74;100.00;96831.28;4952122;28;105429;-63
2023/06/23 10:48:13;;;;;;;8.03;7.23;;;;;;;21.66;100.00;96823.84;4947628;28;105431;-63
2023/06/23 10:50:41;;;;;;;7.43;6.73;;;;;;;21.99;100.00;96831.41;4932236;28;102103;-63
2023/06/23 10:53:32;;;;;;;8.10;7.30;;;;;;;21.78;100.00;96832.22;4932369;28;103733;-63
2023/06/23 10:55:59;;;;;;;7.47;6.77;;;;;;;22.16;100.00;96822.53;4931703;28;105002;-63
2023/06/23 10:58:27;;;;;;;7.27;6.60;;;;;;;22.14;100.00;96822.06;4932170;28;101938;-63
2023/06/23 11:01:01;;;;;;;9.33;7.80;;;;;;;22.17;100.00;96821.44;4931770;28;105257;-63
2023/06/23 11:03:29;;;;;;;7.10;6.40;;;;;;;22.53;100.00;96820.16;4947903;28;106124;-63
2023/06/23 11:05:57;;;;;;;6.93;6.23;;;;;;;22.49;100.00;96821.88;4935433;28;102420;-63
2023/06/23 11:08:33;;;;;;;7.83;7.03;;;;;;;22.85;100.00;96830.59;4931583;28;103961;-63
2023/06/23 11:11:03;;;;;;;6.90;6.17;;;;;;;23.28;100.00;96823.25;4949878;28;102094;-64
2023/06/23 11:13:44;;;;;;;6.67;6.07;;;;;;;23.36;100.00;96835.22;4931831;28;105474;-63
2023/06/23 11:16:16;;;;;;;6.80;6.20;;;;;;;23.41;100.00;96821.50;4947653;28;105173;-63
2023/06/23 11:18:51;;;;;;;7.03;6.30;;;;;;;23.85;100.00;96812.94;4948407;28;101993;-63
2023/06/23 11:21:19;;;;;;;7.80;5.70;;;;;;;24.27;100.00;96812.03;4948268;28;105477;-63
2023/06/23 11:24:10;;;;;;;7.27;6.10;;;;;;;23.84;100.00;96816.78;4931287;28;105573;-63
2023/06/23 11:26:37;;;;;;;7.50;6.80;;;;;;;23.56;100.00;96819.09;4934906;28;101985;-63
2023/06/23 11:29:11;;;;;;;9.50;6.73;;;;;;;22.79;100.00;96825.63;4937918;28;105039;-63